Time,TemperatureF,DewpointF,PressureIn,WindDirection,WindDirectionDegrees,WindSpeedMPH,WindSpeedGustMPH,Humidity,HourlyPrecipIn,Conditions,Clouds,dailyrainin,SoftwareType,DateUTC
2013-01-24 00:00:00,2.3,-12.2,30.11,WNW,293,11.4,12.8,50,0.00,,,0.00,WUHU216HW,2013-01-24 05:00:00,
2013-01-24 00:01:00,2.3,-11.7,30.11,West,270,11.0,12.8,51,0.00,,,0.00,WUHU216HW,2013-01-24 05:01:00,
2013-01-24 00:02:00,2.3,-11.3,30.10,NW,315,6.7,12.8,52,0.00,,,0.00,WUHU216HW,2013-01-24 05:02:00,
2013-01-24 00:07:00,2.3,-12.2,30.10,NNW,338,7.6,14.5,50,0.00,,,0.00,WUHU216HW,2013-01-24 05:07:00,
2013-01-24 00:12:00,2.3,-11.3,30.10,West,270,8.1,14.5,52,0.00,,,0.00,WUHU216HW,2013-01-24 05:12:00,
2013-01-24 00:17:00,2.3,-11.3,30.10,WNW,293,6.9,12.5,52,0.00,,,0.00,WUHU216HW,2013-01-24 05:17:00,
2013-01-24 00:22:00,2.3,-11.0,30.10,WNW,293,5.4,12.5,53,0.00,,,0.00,WUHU216HW,2013-01-24 05:22:00,
2013-01-24 00:27:00,2.3,-11.7,30.10,WNW,293,7.4,12.1,51,0.00,,,0.00,WUHU216HW,2013-01-24 05:27:00,
2013-01-24 00:32:00,2.1,-11.9,30.09,West,270,10.3,12.1,51,0.00,,,0.00,WUHU216HW,2013-01-24 05:32:00,
2013-01-24 00:37:00,2.3,-10.2,30.09,WNW,293,11.4,12.1,55,0.00,,,0.00,WUHU216HW,2013-01-24 05:37:00,
2013-01-24 00:42:00,2.3,-11.3,30.10,SW,225,7.6,12.1,52,0.00,,,0.00,WUHU216HW,2013-01-24 05:42:00,
2013-01-24 00:47:00,2.1,-11.9,30.10,WSW,248,8.3,13.2,51,0.00,,,0.00,WUHU216HW,2013-01-24 05:47:00,
2013-01-24 00:54:00,1.9,-11.3,30.10,NNW,338,7.6,13.2,53,0.00,,,0.00,WUHU216HW,2013-01-24 05:54:00,
2013-01-24 00:59:00,1.9,-11.7,30.10,West,270,9.4,13.4,52,0.00,,,0.00,WUHU216HW,2013-01-24 05:59:00,
2013-01-24 01:04:00,1.9,-11.3,30.10,West,270,6.9,13.4,53,0.00,,,0.00,WUHU216HW,2013-01-24 06:04:00,
2013-01-24 01:09:00,1.9,-11.7,30.10,WSW,248,6.7,11.6,52,0.00,,,0.00,WUHU216HW,2013-01-24 06:09:00,
2013-01-24 01:14:00,1.6,-12.8,30.09,SW,225,9.4,15.2,50,0.00,,,0.00,WUHU216HW,2013-01-24 06:14:00,
2013-01-24 01:19:00,1.7,-12.3,30.09,NW,315,12.3,15.2,51,0.00,,,0.00,WUHU216HW,2013-01-24 06:19:00,
2013-01-24 01:24:00,1.6,-12.0,30.10,WNW,293,12.7,14.1,52,0.00,,,0.00,WUHU216HW,2013-01-24 06:24:00,
2013-01-24 01:29:00,1.6,-12.0,30.10,NNW,338,11.4,15.4,52,0.00,,,0.00,WUHU216HW,2013-01-24 06:29:00,
2013-01-24 01:34:00,1.6,-11.2,30.10,WNW,293,6.9,15.4,54,0.00,,,0.00,WUHU216HW,2013-01-24 06:34:00,
2013-01-24 01:39:00,1.6,-11.6,30.09,NW,315,13.1,15.2,53,0.00,,,0.00,WUHU216HW,2013-01-24 06:39:00,
2013-01-24 01:44:00,1.6,-11.2,30.09,West,270,13.5,15.2,54,0.00,,,0.00,WUHU216HW,2013-01-24 06:44:00,
2013-01-24 01:49:00,1.4,-12.2,30.09,WNW,293,9.6,15.4,52,0.00,,,0.00,WUHU216HW,2013-01-24 06:49:00,
2013-01-24 01:54:00,1.4,-11.4,30.09,SW,225,10.5,15.4,54,0.00,,,0.00,WUHU216HW,2013-01-24 06:54:00,
2013-01-24 01:59:00,1.6,-10.5,30.10,WNW,293,10.5,14.3,56,0.00,,,0.00,WUHU216HW,2013-01-24 06:59:00,
2013-01-24 02:04:00,1.2,-11.2,30.10,West,270,8.1,14.3,55,0.00,,,0.00,WUHU216HW,2013-01-24 07:04:00,
2013-01-24 02:09:00,1.2,-11.6,30.10,WSW,248,10.7,13.4,54,0.00,,,0.00,WUHU216HW,2013-01-24 07:09:00,
2013-01-24 02:14:00,1.0,-11.4,30.10,WSW,248,7.6,14.3,55,0.00,,,0.00,WUHU216HW,2013-01-24 07:14:00,
2013-01-24 02:19:00,0.8,-11.6,30.10,WNW,293,9.2,14.3,55,0.00,,,0.00,WUHU216HW,2013-01-24 07:19:00,
2013-01-24 02:24:00,0.8,-11.6,30.09,West,270,10.1,14.3,55,0.00,,,0.00,WUHU216HW,2013-01-24 07:24:00,
2013-01-24 02:29:00,0.8,-11.6,30.09,SSW,203,10.1,14.3,55,0.00,,,0.00,WUHU216HW,2013-01-24 07:29:00,
2013-01-24 02:34:00,0.8,-11.6,30.09,NW,315,9.8,13.2,55,0.00,,,0.00,WUHU216HW,2013-01-24 07:34:00,
2013-01-24 02:39:00,0.7,-12.1,30.09,West,270,9.2,16.3,54,0.00,,,0.00,WUHU216HW,2013-01-24 07:39:00,
2013-01-24 02:44:00,0.7,-11.7,30.09,West,270,10.1,16.3,55,0.00,,,0.00,WUHU216HW,2013-01-24 07:44:00,
2013-01-24 02:49:00,0.7,-12.1,30.09,WSW,248,6.5,13.9,54,0.00,,,0.00,WUHU216HW,2013-01-24 07:49:00,
2013-01-24 02:54:00,0.7,-12.4,30.09,NW,315,7.6,14.3,53,0.00,,,0.00,WUHU216HW,2013-01-24 07:54:00,
2013-01-24 02:59:00,0.7,-11.7,30.09,WSW,248,9.6,14.3,55,0.00,,,0.00,WUHU216HW,2013-01-24 07:59:00,
2013-01-24 03:04:00,0.5,-12.3,30.09,West,270,12.4,12.8,54,0.00,,,0.00,WUHU216HW,2013-01-24 08:04:00,
2013-01-24 03:09:00,0.5,-13.0,30.09,NW,315,10.1,14.5,52,0.00,,,0.00,WUHU216HW,2013-01-24 08:09:00,
2013-01-24 03:14:00,0.3,-13.2,30.09,West,270,11.6,14.5,52,0.00,,,0.00,WUHU216HW,2013-01-24 08:14:00,
2013-01-24 03:19:00,0.1,-13.8,30.08,West,270,8.5,14.3,51,0.00,,,0.00,WUHU216HW,2013-01-24 08:19:00,
2013-01-24 03:24:00,0.1,-13.4,30.08,WSW,248,7.4,13.0,52,0.00,,,0.00,WUHU216HW,2013-01-24 08:24:00,
2013-01-24 03:29:00,0.1,-14.2,30.08,NW,315,10.3,14.5,50,0.00,,,0.00,WUHU216HW,2013-01-24 08:29:00,
2013-01-24 03:34:00,0.1,-13.8,30.08,WNW,293,10.5,14.5,51,0.00,,,0.00,WUHU216HW,2013-01-24 08:34:00,
2013-01-24 03:39:00,-0.1,-13.6,30.08,NNW,338,10.5,13.4,52,0.00,,,0.00,WUHU216HW,2013-01-24 08:39:00,
2013-01-24 03:44:00,-0.2,-14.1,30.08,WNW,293,9.2,13.4,51,0.00,,,0.00,WUHU216HW,2013-01-24 08:44:00,
2013-01-24 03:49:00,-0.2,-14.1,30.09,West,270,6.0,12.8,51,0.00,,,0.00,WUHU216HW,2013-01-24 08:49:00,
2013-01-24 03:54:00,-0.4,-14.3,30.08,West,270,8.7,13.2,51,0.00,,,0.00,WUHU216HW,2013-01-24 08:54:00,
2013-01-24 03:59:00,-0.4,-14.3,30.08,NW,315,11.9,13.2,51,0.00,,,0.00,WUHU216HW,2013-01-24 08:59:00,
2013-01-24 04:04:00,-0.4,-14.3,30.08,WNW,293,10.5,12.5,51,0.00,,,0.00,WUHU216HW,2013-01-24 09:04:00,
2013-01-24 04:09:00,-0.6,-13.7,30.08,WNW,293,12.7,14.3,53,0.00,,,0.00,WUHU216HW,2013-01-24 09:09:00,
2013-01-24 04:14:00,-0.4,-12.7,30.08,WNW,293,8.5,14.3,55,0.00,,,0.00,WUHU216HW,2013-01-24 09:14:00,
2013-01-24 04:19:00,-0.4,-13.1,30.08,NW,315,9.4,12.8,54,0.00,,,0.00,WUHU216HW,2013-01-24 09:19:00,
2013-01-24 04:24:00,-0.6,-14.0,30.08,SSW,203,10.1,17.2,52,0.00,,,0.00,WUHU216HW,2013-01-24 09:24:00,
2013-01-24 04:29:00,-0.6,-14.0,30.08,WSW,248,14.0,20.1,52,0.00,,,0.00,WUHU216HW,2013-01-24 09:29:00,
2013-01-24 04:34:00,-0.6,-13.3,30.07,NW,315,9.8,20.1,54,0.00,,,0.00,WUHU216HW,2013-01-24 09:34:00,
2013-01-24 04:39:00,-0.6,-14.0,30.07,WNW,293,9.2,14.1,52,0.00,,,0.00,WUHU216HW,2013-01-24 09:39:00,
2013-01-24 04:44:00,-0.6,-14.0,30.07,WNW,293,6.9,15.7,52,0.00,,,0.00,WUHU216HW,2013-01-24 09:44:00,
2013-01-24 04:50:00,-0.6,-14.0,30.07,West,270,12.7,16.1,52,0.00,,,0.00,WUHU216HW,2013-01-24 09:50:00,
2013-01-24 04:55:00,-0.6,-13.3,30.07,West,270,8.9,16.1,54,0.00,,,0.00,WUHU216HW,2013-01-24 09:55:00,
2013-01-24 05:00:00,-0.8,-14.2,30.07,WNW,293,13.8,14.8,52,0.00,,,0.00,WUHU216HW,2013-01-24 10:00:00,
2013-01-24 05:05:00,-0.6,-13.7,30.08,West,270,11.0,14.8,53,0.00,,,0.00,WUHU216HW,2013-01-24 10:05:00,
2013-01-24 05:10:00,-0.8,-13.5,30.07,WSW,248,8.9,13.9,54,0.00,,,0.00,WUHU216HW,2013-01-24 10:10:00,
2013-01-24 05:15:00,-0.8,-14.2,30.07,NNW,338,10.5,14.3,52,0.00,,,0.00,WUHU216HW,2013-01-24 10:15:00,
2013-01-24 05:20:00,-0.8,-13.5,30.07,SSW,203,0.9,14.3,54,0.00,,,0.00,WUHU216HW,2013-01-24 10:20:00,
2013-01-24 05:25:00,-0.8,-14.2,30.07,NW,315,10.7,15.0,52,0.00,,,0.00,WUHU216HW,2013-01-24 10:25:00,
2013-01-24 05:30:00,-1.0,-14.4,30.08,WNW,293,13.1,15.0,52,0.00,,,0.00,WUHU216HW,2013-01-24 10:30:00,
2013-01-24 05:35:00,-1.0,-14.4,30.08,WSW,248,7.6,15.0,52,0.00,,,0.00,WUHU216HW,2013-01-24 10:35:00,
2013-01-24 05:41:00,-1.0,-14.4,30.08,WNW,293,6.9,15.7,52,0.00,,,0.00,WUHU216HW,2013-01-24 10:41:00,
2013-01-24 05:46:00,-1.0,-15.2,30.09,West,270,8.3,15.7,50,0.00,,,0.00,WUHU216HW,2013-01-24 10:46:00,
2013-01-24 05:51:00,-1.1,-14.5,30.08,West,270,4.9,11.4,52,0.00,,,0.00,WUHU216HW,2013-01-24 10:51:00,
2013-01-24 05:56:00,-1.1,-13.7,30.08,NW,315,7.2,8.5,54,0.00,,,0.00,WUHU216HW,2013-01-24 10:56:00,
2013-01-24 06:01:00,-1.0,-13.6,30.08,WNW,293,5.6,9.8,54,0.00,,,0.00,WUHU216HW,2013-01-24 11:01:00,
2013-01-24 06:06:00,-0.8,-13.0,30.08,NW,315,9.2,12.1,55,0.00,,,0.00,WUHU216HW,2013-01-24 11:06:00,
2013-01-24 06:11:00,-0.7,-13.8,30.08,West,270,14.9,15.2,53,0.00,,,0.00,WUHU216HW,2013-01-24 11:11:00,
2013-01-24 06:16:00,-0.7,-13.4,30.08,West,270,8.9,16.3,54,0.00,,,0.00,WUHU216HW,2013-01-24 11:16:00,
2013-01-24 06:21:00,-0.8,-13.9,30.08,WNW,293,10.5,19.9,53,0.00,,,0.00,WUHU216HW,2013-01-24 11:21:00,
2013-01-24 06:26:00,-0.6,-13.7,30.08,NW,315,9.8,19.9,53,0.00,,,0.00,WUHU216HW,2013-01-24 11:26:00,
2013-01-24 06:31:00,-0.6,-14.0,30.09,WNW,293,7.4,13.4,52,0.00,,,0.00,WUHU216HW,2013-01-24 11:31:00,
2013-01-24 06:36:00,-0.5,-14.0,30.09,WSW,248,10.1,13.4,52,0.00,,,0.00,WUHU216HW,2013-01-24 11:36:00,
2013-01-24 06:41:00,-0.7,-14.5,30.08,WNW,293,9.2,16.3,51,0.00,,,0.00,WUHU216HW,2013-01-24 11:41:00,
2013-01-24 06:46:00,-0.7,-14.5,30.09,WNW,293,13.5,16.3,51,0.00,,,0.00,WUHU216HW,2013-01-24 11:46:00,
2013-01-24 06:51:00,-0.6,-14.5,30.09,NW,315,11.4,14.3,51,0.00,,,0.00,WUHU216HW,2013-01-24 11:51:00,
2013-01-24 06:57:00,-0.6,-14.8,30.09,WSW,248,15.6,15.7,50,0.00,,,0.00,WUHU216HW,2013-01-24 11:57:00,
2013-01-24 07:02:00,-0.7,-14.5,30.09,WNW,293,8.1,16.1,51,0.00,,,0.00,WUHU216HW,2013-01-24 12:02:00,
2013-01-24 07:07:00,-0.3,-13.8,30.09,NW,315,8.1,16.1,52,0.00,,,0.00,WUHU216HW,2013-01-24 12:07:00,
2013-01-24 07:12:00,-0.1,-13.2,30.09,West,270,8.1,15.0,53,0.00,,,0.00,WUHU216HW,2013-01-24 12:12:00,
2013-01-24 07:18:00,0.2,-13.0,30.09,WNW,293,10.7,15.0,53,0.00,,,0.00,WUHU216HW,2013-01-24 12:18:00,
2013-01-24 07:23:00,0.2,-13.3,30.09,WNW,293,9.8,12.8,52,0.00,,,0.00,WUHU216HW,2013-01-24 12:23:00,
2013-01-24 07:28:00,1.4,-13.8,30.09,WNW,293,11.4,12.8,48,0.00,,,0.00,WUHU216HW,2013-01-24 12:28:00,
2013-01-24 07:33:00,3.3,-12.5,30.09,North,0,12.3,13.4,47,0.00,,,0.00,WUHU216HW,2013-01-24 12:33:00,
2013-01-24 07:38:00,4.8,-11.6,30.09,West,270,8.9,13.4,46,0.00,,,0.00,WUHU216HW,2013-01-24 12:38:00,
2013-01-24 07:43:00,5.5,-12.3,30.09,West,270,11.6,13.4,43,0.00,,,0.00,WUHU216HW,2013-01-24 12:43:00,
2013-01-24 07:48:00,5.6,-12.3,30.09,NNW,338,10.1,13.4,43,0.00,,,0.00,WUHU216HW,2013-01-24 12:48:00,
2013-01-24 07:53:00,6.7,-11.2,30.10,West,270,13.5,16.1,43,0.00,,,0.00,WUHU216HW,2013-01-24 12:53:00,
2013-01-24 07:58:00,6.9,-10.5,30.09,NW,315,7.4,16.1,44,0.00,,,0.00,WUHU216HW,2013-01-24 12:58:00,
2013-01-24 08:03:00,9.3,-10.4,30.09,WNW,293,6.9,13.4,40,0.00,,,0.00,WUHU216HW,2013-01-24 13:03:00,
2013-01-24 08:08:00,7.9,-11.1,30.10,West,270,5.4,13.0,41,0.00,,,0.00,WUHU216HW,2013-01-24 13:08:00,
2013-01-24 08:13:00,8.6,-11.0,30.09,NW,315,8.5,15.7,40,0.00,,,0.00,WUHU216HW,2013-01-24 13:13:00,
2013-01-24 08:18:00,7.4,-11.1,30.09,WNW,293,4.7,15.7,42,0.00,,,0.00,WUHU216HW,2013-01-24 13:18:00,
2013-01-24 08:23:00,9.0,-10.1,30.09,West,270,9.2,12.8,41,0.00,,,0.00,WUHU216HW,2013-01-24 13:23:00,
2013-01-24 08:28:00,7.6,-11.9,30.10,WNW,293,15.6,15.7,40,0.00,,,0.00,WUHU216HW,2013-01-24 13:28:00,
2013-01-24 08:33:00,9.2,-10.9,30.10,WNW,293,5.8,16.3,39,0.00,,,0.00,WUHU216HW,2013-01-24 13:33:00,
2013-01-24 08:38:00,9.0,-10.6,30.09,WNW,293,15.3,17.4,40,0.00,,,0.00,WUHU216HW,2013-01-24 13:38:00,
2013-01-24 08:43:00,8.4,-12.7,30.10,West,270,10.7,17.4,37,0.00,,,0.00,WUHU216HW,2013-01-24 13:43:00,
2013-01-24 08:48:00,10.4,-10.4,30.10,West,270,9.2,15.4,38,0.00,,,0.00,WUHU216HW,2013-01-24 13:48:00,
2013-01-24 08:53:00,11.6,-9.9,30.10,West,270,12.7,13.2,37,0.00,,,0.00,WUHU216HW,2013-01-24 13:53:00,
2013-01-24 08:58:00,11.0,-11.0,30.10,West,270,11.4,14.1,36,0.00,,,0.00,WUHU216HW,2013-01-24 13:58:00,
2013-01-24 09:03:00,10.7,-10.1,30.10,West,270,12.7,17.7,38,0.00,,,0.00,WUHU216HW,2013-01-24 14:03:00,
2013-01-24 09:08:00,8.7,-11.9,30.09,WNW,293,9.2,17.7,38,0.00,,,0.00,WUHU216HW,2013-01-24 14:08:00,
2013-01-24 09:13:00,8.1,-12.0,30.09,WNW,293,18.0,18.1,39,0.00,,,0.00,WUHU216HW,2013-01-24 14:13:00,
2013-01-24 09:18:00,8.6,-9.5,30.10,NNW,338,6.3,18.1,43,0.00,,,0.00,WUHU216HW,2013-01-24 14:18:00,
2013-01-24 09:23:00,8.3,-10.2,30.09,NW,315,12.3,18.1,42,0.00,,,0.00,WUHU216HW,2013-01-24 14:23:00,
2013-01-24 09:28:00,7.9,-10.1,30.09,WNW,293,12.4,16.1,43,0.00,,,0.00,WUHU216HW,2013-01-24 14:28:00,
2013-01-24 09:33:00,8.2,-9.9,30.09,West,270,12.7,17.0,43,0.00,,,0.00,WUHU216HW,2013-01-24 14:33:00,
2013-01-24 09:38:00,7.8,-11.7,30.09,WNW,293,17.8,17.9,40,0.00,,,0.00,WUHU216HW,2013-01-24 14:38:00,
2013-01-24 09:43:00,7.8,-10.2,30.09,NNW,338,9.2,17.9,43,0.00,,,0.00,WUHU216HW,2013-01-24 14:43:00,
2013-01-24 09:48:00,8.0,-11.0,30.09,NW,315,16.0,16.1,41,0.00,,,0.00,WUHU216HW,2013-01-24 14:48:00,
2013-01-24 09:53:00,8.5,-9.6,30.09,WNW,293,9.4,16.1,43,0.00,,,0.00,WUHU216HW,2013-01-24 14:53:00,
2013-01-24 09:58:00,9.0,-8.7,30.09,NW,315,12.7,15.9,44,0.00,,,0.00,WUHU216HW,2013-01-24 14:58:00,
2013-01-24 10:03:00,8.8,-9.8,30.09,WNW,293,11.0,16.3,42,0.00,,,0.00,WUHU216HW,2013-01-24 15:03:00,
2013-01-24 10:08:00,9.4,-9.2,30.08,NW,315,10.1,17.2,42,0.00,,,0.00,WUHU216HW,2013-01-24 15:08:00,
2013-01-24 10:13:00,9.9,-8.3,30.09,WNW,293,9.4,17.2,43,0.00,,,0.00,WUHU216HW,2013-01-24 15:13:00,
2013-01-24 10:18:00,11.1,-9.3,30.08,WNW,293,5.4,15.9,39,0.00,,,0.00,WUHU216HW,2013-01-24 15:18:00,
2013-01-24 10:23:00,11.1,-8.7,30.08,NNW,338,14.7,18.1,40,0.00,,,0.00,WUHU216HW,2013-01-24 15:23:00,
2013-01-24 10:28:00,11.1,-9.8,30.08,SW,225,12.7,18.1,38,0.00,,,0.00,WUHU216HW,2013-01-24 15:28:00,
2013-01-24 10:33:00,12.0,-7.9,30.08,NW,315,14.2,17.0,40,0.00,,,0.00,WUHU216HW,2013-01-24 15:33:00,
2013-01-24 10:38:00,12.2,-7.2,30.08,WNW,293,5.6,15.2,41,0.00,,,0.00,WUHU216HW,2013-01-24 15:38:00,
2013-01-24 10:43:00,12.3,-8.1,30.08,West,270,8.7,15.2,39,0.00,,,0.00,WUHU216HW,2013-01-24 15:43:00,
2013-01-24 10:48:00,13.3,-7.8,30.08,WNW,293,16.0,16.1,38,0.00,,,0.00,WUHU216HW,2013-01-24 15:48:00,
2013-01-24 10:53:00,12.4,-8.6,30.08,WNW,293,12.1,16.1,38,0.00,,,0.00,WUHU216HW,2013-01-24 15:53:00,
2013-01-24 10:58:00,13.0,-9.2,30.08,West,270,13.3,17.9,36,0.00,,,0.00,WUHU216HW,2013-01-24 15:58:00,
2013-01-24 11:03:00,12.6,-7.4,30.07,NW,315,11.4,17.9,40,0.00,,,0.00,WUHU216HW,2013-01-24 16:03:00,
2013-01-24 11:08:00,13.0,-7.0,30.07,NW,315,10.1,19.9,40,0.00,,,0.00,WUHU216HW,2013-01-24 16:08:00,
2013-01-24 11:13:00,13.5,-6.5,30.07,WNW,293,15.1,19.9,40,0.00,,,0.00,WUHU216HW,2013-01-24 16:13:00,
2013-01-24 11:18:00,13.2,-9.0,30.07,NW,315,11.2,15.2,36,0.00,,,0.00,WUHU216HW,2013-01-24 16:18:00,
2013-01-24 11:23:00,13.2,-8.4,30.07,West,270,14.9,17.2,37,0.00,,,0.00,WUHU216HW,2013-01-24 16:23:00,
2013-01-24 11:28:00,13.3,-7.7,30.07,NNW,338,16.0,17.2,38,0.00,,,0.00,WUHU216HW,2013-01-24 16:28:00,
2013-01-24 11:33:00,13.8,-7.4,30.06,WNW,293,10.7,19.2,38,0.00,,,0.00,WUHU216HW,2013-01-24 16:33:00,
2013-01-24 11:38:00,13.4,-8.8,30.06,NNW,338,12.4,21.9,36,0.00,,,0.00,WUHU216HW,2013-01-24 16:38:00,
2013-01-24 11:43:00,14.2,-6.5,30.06,NW,315,12.7,21.9,39,0.00,,,0.00,WUHU216HW,2013-01-24 16:43:00,
2013-01-24 11:48:00,14.9,-6.9,30.06,NW,315,12.7,17.2,37,0.00,,,0.00,WUHU216HW,2013-01-24 16:48:00,
2013-01-24 11:53:00,13.8,-7.4,30.06,WSW,248,17.8,20.6,38,0.00,,,0.00,WUHU216HW,2013-01-24 16:53:00,
2013-01-24 11:58:00,13.4,-8.8,30.06,WNW,293,16.0,23.9,36,0.00,,,0.00,WUHU216HW,2013-01-24 16:58:00,
2013-01-24 12:03:00,14.3,-8.0,30.05,West,270,15.6,23.9,36,0.00,,,0.00,WUHU216HW,2013-01-24 17:03:00,
2013-01-24 12:08:00,14.0,-8.3,30.05,NNW,338,10.5,23.7,36,0.00,,,0.00,WUHU216HW,2013-01-24 17:08:00,
2013-01-24 12:13:00,14.5,-7.3,30.05,West,270,12.3,23.7,37,0.00,,,0.00,WUHU216HW,2013-01-24 17:13:00,
2013-01-24 12:18:00,14.7,-7.6,30.05,NW,315,16.2,23.3,36,0.00,,,0.00,WUHU216HW,2013-01-24 17:18:00,
2013-01-24 12:23:00,14.5,-7.8,30.05,West,270,12.3,23.3,36,0.00,,,0.00,WUHU216HW,2013-01-24 17:23:00,
2013-01-24 12:28:00,15.4,-7.6,30.05,West,270,10.5,21.3,35,0.00,,,0.00,WUHU216HW,2013-01-24 17:28:00,
2013-01-24 12:33:00,16.0,-7.1,30.05,NNW,338,15.6,21.3,35,0.00,,,0.00,WUHU216HW,2013-01-24 17:33:00,
2013-01-24 12:38:00,15.4,-7.6,30.05,West,270,15.6,20.8,35,0.00,,,0.00,WUHU216HW,2013-01-24 17:38:00,
2013-01-24 12:43:00,15.4,-7.6,30.04,WNW,293,18.2,20.8,35,0.00,,,0.00,WUHU216HW,2013-01-24 17:43:00,
2013-01-24 12:48:00,15.2,-8.4,30.05,NW,315,19.6,20.6,34,0.00,,,0.00,WUHU216HW,2013-01-24 17:48:00,
2013-01-24 12:53:00,16.3,-6.8,30.05,West,270,10.7,19.9,35,0.00,,,0.00,WUHU216HW,2013-01-24 17:53:00,
2013-01-24 12:58:00,16.3,-7.4,30.05,West,270,12.7,19.9,34,0.00,,,0.00,WUHU216HW,2013-01-24 17:58:00,
2013-01-24 13:03:00,16.3,-7.4,30.04,North,0,12.1,16.6,34,0.00,,,0.00,WUHU216HW,2013-01-24 18:03:00,
2013-01-24 13:08:00,16.3,-8.6,30.04,NW,315,16.2,20.1,32,0.00,,,0.00,WUHU216HW,2013-01-24 18:08:00,
2013-01-24 13:13:00,17.2,-7.9,30.04,NW,315,14.9,22.6,32,0.00,,,0.00,WUHU216HW,2013-01-24 18:13:00,
2013-01-24 13:18:00,17.0,-9.3,30.04,NW,315,10.3,22.6,30,0.00,,,0.00,WUHU216HW,2013-01-24 18:18:00,
2013-01-24 13:23:00,17.6,-6.3,30.04,West,270,16.2,18.3,34,0.00,,,0.00,WUHU216HW,2013-01-24 18:23:00,
2013-01-24 13:28:00,17.3,-6.5,30.04,NNW,338,10.5,18.3,34,0.00,,,0.00,WUHU216HW,2013-01-24 18:28:00,
2013-01-24 13:33:00,17.7,-8.7,30.03,NW,315,15.6,18.1,30,0.00,,,0.00,WUHU216HW,2013-01-24 18:33:00,
2013-01-24 13:38:00,17.7,-7.4,30.03,West,270,17.1,18.3,32,0.00,,,0.00,WUHU216HW,2013-01-24 18:38:00,
2013-01-24 13:43:00,17.3,-8.4,30.03,NW,315,11.6,18.3,31,0.00,,,0.00,WUHU216HW,2013-01-24 18:43:00,
2013-01-24 13:48:00,17.1,-9.2,30.03,NW,315,16.0,17.2,30,0.00,,,0.00,WUHU216HW,2013-01-24 18:48:00,
2013-01-24 13:53:00,17.8,-4.9,30.03,NW,315,14.2,16.8,36,0.00,,,0.00,WUHU216HW,2013-01-24 18:53:00,
2013-01-24 13:58:00,17.5,-8.9,30.02,West,270,10.5,22.4,30,0.00,,,0.00,WUHU216HW,2013-01-24 18:58:00,
2013-01-24 14:03:00,16.9,-8.1,30.02,North,0,10.7,22.4,32,0.00,,,0.00,WUHU216HW,2013-01-24 19:03:00,
2013-01-24 14:08:00,16.2,-8.7,30.02,NNW,338,17.6,21.0,32,0.00,,,0.00,WUHU216HW,2013-01-24 19:08:00,
2013-01-24 14:13:00,16.8,-6.9,30.02,WNW,293,13.5,21.0,34,0.00,,,0.00,WUHU216HW,2013-01-24 19:13:00,
2013-01-24 14:18:00,16.3,-7.4,30.03,WNW,293,13.5,17.2,34,0.00,,,0.00,WUHU216HW,2013-01-24 19:18:00,
2013-01-24 14:23:00,16.3,-9.3,30.03,NW,315,17.8,17.9,31,0.00,,,0.00,WUHU216HW,2013-01-24 19:23:00,
2013-01-24 14:28:00,16.5,-8.4,30.03,West,270,14.7,17.9,32,0.00,,,0.00,WUHU216HW,2013-01-24 19:28:00,
2013-01-24 14:33:00,16.8,-8.2,30.03,NW,315,10.5,17.9,32,0.00,,,0.00,WUHU216HW,2013-01-24 19:33:00,
2013-01-24 14:38:00,16.8,-8.2,30.03,West,270,12.3,15.9,32,0.00,,,0.00,WUHU216HW,2013-01-24 19:38:00,
2013-01-24 14:43:00,17.1,-6.6,30.03,NW,315,12.7,18.6,34,0.00,,,0.00,WUHU216HW,2013-01-24 19:43:00,
2013-01-24 14:48:00,16.7,-7.0,30.03,West,270,8.5,18.6,34,0.00,,,0.00,WUHU216HW,2013-01-24 19:48:00,
2013-01-24 14:53:00,16.7,-7.0,30.03,WNW,293,13.8,15.7,34,0.00,,,0.00,WUHU216HW,2013-01-24 19:53:00,
2013-01-24 14:58:00,16.4,-8.5,30.03,West,270,10.5,15.7,32,0.00,,,0.00,WUHU216HW,2013-01-24 19:58:00,
2013-01-24 15:03:00,16.6,-7.2,30.03,NW,315,13.3,13.9,34,0.00,,,0.00,WUHU216HW,2013-01-24 20:03:00,
2013-01-24 15:08:00,16.5,-8.4,30.03,WNW,293,8.5,13.9,32,0.00,,,0.00,WUHU216HW,2013-01-24 20:08:00,
2013-01-24 15:13:00,16.5,-7.2,30.04,West,270,13.1,15.4,34,0.00,,,0.00,WUHU216HW,2013-01-24 20:13:00,
2013-01-24 15:18:00,16.5,-9.1,30.04,West,270,9.8,15.4,31,0.00,,,0.00,WUHU216HW,2013-01-24 20:18:00,
2013-01-24 15:23:00,16.5,-8.5,30.04,WNW,293,6.5,12.3,32,0.00,,,0.00,WUHU216HW,2013-01-24 20:23:00,
2013-01-24 15:28:00,16.6,-7.2,30.03,NW,315,7.4,12.1,34,0.00,,,0.00,WUHU216HW,2013-01-24 20:28:00,
2013-01-24 15:33:00,16.2,-9.3,30.03,WNW,293,9.8,19.7,31,0.00,,,0.00,WUHU216HW,2013-01-24 20:33:00,
2013-01-24 15:38:00,16.2,-8.1,30.03,West,270,8.5,19.7,33,0.00,,,0.00,WUHU216HW,2013-01-24 20:38:00,
2013-01-24 15:43:00,16.2,-8.7,30.04,NNW,338,8.5,18.6,32,0.00,,,0.00,WUHU216HW,2013-01-24 20:43:00,
2013-01-24 15:48:00,16.2,-9.4,30.04,NW,315,4.7,18.6,31,0.00,,,0.00,WUHU216HW,2013-01-24 20:48:00,
2013-01-24 15:53:00,16.1,-8.8,30.04,WSW,248,9.2,15.0,32,0.00,,,0.00,WUHU216HW,2013-01-24 20:53:00,
2013-01-24 15:58:00,16.1,-8.8,30.04,WNW,293,8.9,13.6,32,0.00,,,0.00,WUHU216HW,2013-01-24 20:58:00,
2013-01-24 16:03:00,16.1,-9.5,30.04,NNW,338,14.4,15.2,31,0.00,,,0.00,WUHU216HW,2013-01-24 21:03:00,
2013-01-24 16:08:00,16.0,-8.8,30.04,NW,315,9.2,17.2,32,0.00,,,0.00,WUHU216HW,2013-01-24 21:08:00,
2013-01-24 16:13:00,16.0,-9.5,30.05,West,270,13.3,17.2,31,0.00,,,0.00,WUHU216HW,2013-01-24 21:13:00,
2013-01-24 16:18:00,15.8,-9.7,30.05,West,270,10.5,17.2,31,0.00,,,0.00,WUHU216HW,2013-01-24 21:18:00,
2013-01-24 16:23:00,16.0,-8.9,30.05,WSW,248,15.6,17.2,32,0.00,,,0.00,WUHU216HW,2013-01-24 21:23:00,
2013-01-24 16:28:00,15.9,-9.0,30.05,WSW,248,12.1,15.9,32,0.00,,,0.00,WUHU216HW,2013-01-24 21:28:00,
2013-01-24 16:33:00,15.5,-10.6,30.05,WSW,248,15.6,19.7,30,0.00,,,0.00,WUHU216HW,2013-01-24 21:33:00,
2013-01-24 16:38:00,15.3,-9.5,30.05,WNW,293,9.8,19.7,32,0.00,,,0.00,WUHU216HW,2013-01-24 21:38:00,
2013-01-24 16:43:00,15.1,-9.6,30.05,WNW,293,7.6,15.7,32,0.00,,,0.00,WUHU216HW,2013-01-24 21:43:00,
2013-01-24 16:48:00,14.9,-8.6,30.05,West,270,9.2,16.3,34,0.00,,,0.00,WUHU216HW,2013-01-24 21:48:00,
2013-01-24 16:53:00,14.7,-10.1,30.05,WNW,293,13.3,17.0,32,0.00,,,0.00,WUHU216HW,2013-01-24 21:53:00,
2013-01-24 16:58:00,14.2,-10.4,30.06,WNW,293,10.3,17.0,32,0.00,,,0.00,WUHU216HW,2013-01-24 21:58:00,
2013-01-24 17:03:00,14.2,-8.7,30.06,NW,315,8.5,14.8,35,0.00,,,0.00,WUHU216HW,2013-01-24 22:03:00,
2013-01-24 17:08:00,14.1,-10.6,30.07,WSW,248,12.3,12.3,32,0.00,,,0.00,WUHU216HW,2013-01-24 22:08:00,
2013-01-24 17:13:00,13.8,-10.8,30.07,WNW,293,6.3,13.0,32,0.00,,,0.00,WUHU216HW,2013-01-24 22:13:00,
2013-01-24 17:18:00,13.8,-10.8,30.07,WNW,293,8.3,14.3,32,0.00,,,0.00,WUHU216HW,2013-01-24 22:18:00,
2013-01-24 17:23:00,13.8,-10.2,30.08,SW,225,8.3,15.7,33,0.00,,,0.00,WUHU216HW,2013-01-24 22:23:00,
2013-01-24 17:28:00,13.7,-11.5,30.08,WSW,248,8.1,15.7,31,0.00,,,0.00,WUHU216HW,2013-01-24 22:28:00,
2013-01-24 17:33:00,13.7,-9.7,30.08,WNW,293,4.9,14.8,34,0.00,,,0.00,WUHU216HW,2013-01-24 22:33:00,
2013-01-24 17:38:00,13.5,-9.9,30.07,NW,315,5.8,12.5,34,0.00,,,0.00,WUHU216HW,2013-01-24 22:38:00,
2013-01-24 17:43:00,13.4,-9.9,30.07,WNW,293,9.6,19.5,34,0.00,,,0.00,WUHU216HW,2013-01-24 22:43:00,
2013-01-24 17:48:00,13.6,-10.4,30.07,WNW,293,13.8,19.5,33,0.00,,,0.00,WUHU216HW,2013-01-24 22:48:00,
2013-01-24 17:53:00,13.6,-11.0,30.07,West,270,11.4,22.1,32,0.00,,,0.00,WUHU216HW,2013-01-24 22:53:00,
2013-01-24 17:58:00,13.5,-9.3,30.07,NW,315,15.8,22.1,35,0.00,,,0.00,WUHU216HW,2013-01-24 22:58:00,
2013-01-24 18:04:00,13.5,-9.9,30.07,SW,225,15.6,20.8,34,0.00,,,0.00,WUHU216HW,2013-01-24 23:04:00,
2013-01-24 18:09:00,13.3,-10.1,30.08,West,270,6.9,20.8,34,0.00,,,0.00,WUHU216HW,2013-01-24 23:09:00,
2013-01-24 18:14:00,13.2,-9.5,30.08,West,270,14.0,17.4,35,0.00,,,0.00,WUHU216HW,2013-01-24 23:14:00,
2013-01-24 18:19:00,13.2,-9.0,30.09,West,270,9.6,17.9,36,0.00,,,0.00,WUHU216HW,2013-01-24 23:19:00,
2013-01-24 18:24:00,13.0,-9.8,30.09,NNW,338,9.8,17.9,35,0.00,,,0.00,WUHU216HW,2013-01-24 23:24:00,
2013-01-24 18:29:00,12.9,-10.4,30.09,NW,315,15.1,15.2,34,0.00,,,0.00,WUHU216HW,2013-01-24 23:29:00,
2013-01-24 18:35:00,12.9,-9.3,30.09,West,270,9.4,16.3,36,0.00,,,0.00,WUHU216HW,2013-01-24 23:35:00,
2013-01-24 18:40:00,12.6,-10.6,30.10,NW,315,5.1,16.3,34,0.00,,,0.00,WUHU216HW,2013-01-24 23:40:00,
2013-01-24 18:45:00,12.6,-10.1,30.10,NW,315,11.4,12.8,35,0.00,,,0.00,WUHU216HW,2013-01-24 23:45:00,
2013-01-24 18:50:00,12.6,-9.5,30.11,WNW,293,10.3,12.8,36,0.00,,,0.00,WUHU216HW,2013-01-24 23:50:00,
2013-01-24 18:55:00,12.4,-9.7,30.10,WNW,293,6.9,12.8,36,0.00,,,0.00,WUHU216HW,2013-01-24 23:55:00,
2013-01-24 19:00:00,12.4,-10.3,30.10,WNW,293,14.2,15.0,35,0.00,,,0.00,WUHU216HW,2013-01-25 00:00:00,
2013-01-24 19:05:00,12.4,-10.3,30.10,West,270,15.6,15.7,35,0.00,,,0.00,WUHU216HW,2013-01-25 00:05:00,
2013-01-24 19:10:00,12.4,-9.7,30.10,WNW,293,8.7,16.8,36,0.00,,,0.00,WUHU216HW,2013-01-25 00:10:00,
2013-01-24 19:15:00,12.4,-9.7,30.10,NW,315,20.7,20.8,36,0.00,,,0.00,WUHU216HW,2013-01-25 00:15:00,
2013-01-24 19:20:00,12.4,-9.7,30.10,WSW,248,17.8,21.3,36,0.00,,,0.00,WUHU216HW,2013-01-25 00:20:00,
2013-01-24 19:25:00,12.4,-10.3,30.10,West,270,14.9,21.3,35,0.00,,,0.00,WUHU216HW,2013-01-25 00:25:00,
2013-01-24 19:30:00,12.4,-10.3,30.10,NW,315,13.3,21.7,35,0.00,,,0.00,WUHU216HW,2013-01-25 00:30:00,
2013-01-24 19:35:00,12.4,-8.6,30.10,WNW,293,13.8,21.7,38,0.00,,,0.00,WUHU216HW,2013-01-25 00:35:00,
2013-01-24 19:40:00,12.2,-10.5,30.11,WNW,293,11.2,20.6,35,0.00,,,0.00,WUHU216HW,2013-01-25 00:40:00,
2013-01-24 19:45:00,12.2,-9.3,30.11,West,270,11.4,20.6,37,0.00,,,0.00,WUHU216HW,2013-01-25 00:45:00,
2013-01-24 19:50:00,12.2,-8.8,30.11,WNW,293,14.4,19.5,38,0.00,,,0.00,WUHU216HW,2013-01-25 00:50:00,
2013-01-24 19:55:00,12.2,-7.7,30.11,West,270,12.1,19.5,40,0.00,,,0.00,WUHU216HW,2013-01-25 00:55:00,
2013-01-24 20:00:00,12.0,-9.0,30.10,North,0,4.9,17.0,38,0.00,,,0.00,WUHU216HW,2013-01-25 01:00:00,
2013-01-24 20:05:00,12.0,-9.0,30.11,West,270,12.4,17.0,38,0.00,,,0.00,WUHU216HW,2013-01-25 01:05:00,
2013-01-24 20:10:00,11.8,-9.1,30.11,NW,315,12.3,16.3,38,0.00,,,0.00,WUHU216HW,2013-01-25 01:10:00,
2013-01-24 20:15:00,11.6,-9.3,30.12,WNW,293,9.4,15.7,38,0.00,,,0.00,WUHU216HW,2013-01-25 01:15:00,
2013-01-24 20:20:00,11.6,-9.3,30.12,West,270,6.5,15.7,38,0.00,,,0.00,WUHU216HW,2013-01-25 01:20:00,
2013-01-24 20:25:00,11.6,-10.4,30.12,WNW,293,13.3,14.8,36,0.00,,,0.00,WUHU216HW,2013-01-25 01:25:00,
2013-01-24 20:30:00,11.6,-9.9,30.12,WNW,293,9.4,14.3,37,0.00,,,0.00,WUHU216HW,2013-01-25 01:30:00,
2013-01-24 20:35:00,11.5,-10.5,30.13,NW,315,7.6,14.3,36,0.00,,,0.00,WUHU216HW,2013-01-25 01:35:00,
2013-01-24 20:40:00,11.5,-8.3,30.13,NW,315,6.9,21.5,40,0.00,,,0.00,WUHU216HW,2013-01-25 01:40:00,
2013-01-24 20:45:00,11.5,-9.4,30.13,NW,315,12.3,21.5,38,0.00,,,0.00,WUHU216HW,2013-01-25 01:45:00,
2013-01-24 20:50:00,11.3,-9.6,30.13,WNW,293,15.1,20.4,38,0.00,,,0.00,WUHU216HW,2013-01-25 01:50:00,
2013-01-24 20:55:00,11.3,-9.6,30.13,West,270,9.8,20.1,38,0.00,,,0.00,WUHU216HW,2013-01-25 01:55:00,
2013-01-24 21:00:00,11.1,-10.3,30.14,NW,315,9.8,18.3,37,0.00,,,0.00,WUHU216HW,2013-01-25 02:00:00,
2013-01-24 21:05:00,11.1,-8.2,30.14,NW,315,8.3,18.3,41,0.00,,,0.00,WUHU216HW,2013-01-25 02:05:00,
2013-01-24 21:10:00,10.9,-9.4,30.14,WNW,293,13.3,17.7,39,0.00,,,0.00,WUHU216HW,2013-01-25 02:10:00,
2013-01-24 21:15:00,10.9,-8.9,30.14,WNW,293,12.4,17.7,40,0.00,,,0.00,WUHU216HW,2013-01-25 02:15:00,
2013-01-24 21:20:00,10.7,-9.6,30.14,North,0,13.1,14.5,39,0.00,,,0.00,WUHU216HW,2013-01-25 02:20:00,
2013-01-24 21:25:00,10.6,-7.7,30.15,WNW,293,15.6,15.7,43,0.00,,,0.00,WUHU216HW,2013-01-25 02:25:00,
2013-01-24 21:30:00,10.4,-9.3,30.15,WNW,293,12.3,15.7,40,0.00,,,0.00,WUHU216HW,2013-01-25 02:30:00,
2013-01-24 21:35:00,10.4,-8.8,30.16,WNW,293,8.3,15.7,41,0.00,,,0.00,WUHU216HW,2013-01-25 02:35:00,
2013-01-24 21:40:00,10.2,-8.5,30.16,WNW,293,8.1,15.0,42,0.00,,,0.00,WUHU216HW,2013-01-25 02:40:00,
2013-01-24 21:45:00,10.2,-9.0,30.16,WNW,293,6.7,15.0,41,0.00,,,0.00,WUHU216HW,2013-01-25 02:45:00,
2013-01-24 21:50:00,10.2,-8.5,30.15,WNW,293,11.6,15.2,42,0.00,,,0.00,WUHU216HW,2013-01-25 02:50:00,
2013-01-24 21:55:00,10.0,-8.2,30.16,WSW,248,8.3,15.2,43,0.00,,,0.00,WUHU216HW,2013-01-25 02:55:00,
2013-01-24 22:00:00,9.8,-8.4,30.16,WNW,293,6.9,15.4,43,0.00,,,0.00,WUHU216HW,2013-01-25 03:00:00,
2013-01-24 22:05:00,9.8,-8.4,30.16,West,270,7.2,15.4,43,0.00,,,0.00,WUHU216HW,2013-01-25 03:05:00,
2013-01-24 22:10:00,9.8,-7.9,30.16,WNW,293,12.1,14.3,44,0.00,,,0.00,WUHU216HW,2013-01-25 03:10:00,
2013-01-24 22:15:00,9.8,-7.4,30.16,NNW,338,14.2,14.3,45,0.00,,,0.00,WUHU216HW,2013-01-25 03:15:00,
2013-01-24 22:20:00,9.8,-7.0,30.16,WSW,248,11.0,14.3,46,0.00,,,0.00,WUHU216HW,2013-01-25 03:20:00,
2013-01-24 22:25:00,9.5,-7.7,30.16,NW,315,8.3,15.4,45,0.00,,,0.00,WUHU216HW,2013-01-25 03:25:00,
2013-01-24 22:30:00,9.5,-8.2,30.16,North,0,9.8,15.4,44,0.00,,,0.00,WUHU216HW,2013-01-25 03:30:00,
2013-01-24 22:35:00,9.5,-6.8,30.16,West,270,9.2,14.5,47,0.00,,,0.00,WUHU216HW,2013-01-25 03:35:00,
2013-01-24 22:40:00,9.5,-7.2,30.17,NNW,338,6.0,14.5,46,0.00,,,0.00,WUHU216HW,2013-01-25 03:40:00,
2013-01-24 22:45:00,9.3,-7.9,30.16,NW,315,7.6,14.1,45,0.00,,,0.00,WUHU216HW,2013-01-25 03:45:00,
2013-01-24 22:50:00,9.3,-7.4,30.16,NW,315,6.0,16.3,46,0.00,,,0.00,WUHU216HW,2013-01-25 03:50:00,
2013-01-24 22:55:00,9.3,-7.0,30.16,West,270,12.7,17.7,47,0.00,,,0.00,WUHU216HW,2013-01-25 03:55:00,
2013-01-24 23:00:00,9.3,-7.0,30.16,NW,315,13.1,17.7,47,0.00,,,0.00,WUHU216HW,2013-01-25 04:00:00,
2013-01-24 23:05:00,9.3,-7.0,30.16,WNW,293,12.3,17.2,47,0.00,,,0.00,WUHU216HW,2013-01-25 04:05:00,
2013-01-24 23:10:00,9.1,-7.2,30.17,WNW,293,8.3,13.4,47,0.00,,,0.00,WUHU216HW,2013-01-25 04:10:00,
2013-01-24 23:15:00,9.1,-7.2,30.17,WNW,293,8.7,13.9,47,0.00,,,0.00,WUHU216HW,2013-01-25 04:15:00,
2013-01-24 23:20:00,9.1,-7.2,30.17,WSW,248,9.4,17.9,47,0.00,,,0.00,WUHU216HW,2013-01-25 04:20:00,
2013-01-24 23:25:00,8.8,-7.4,30.16,West,270,15.6,17.9,47,0.00,,,0.00,WUHU216HW,2013-01-25 04:25:00,
2013-01-24 23:30:00,8.8,-7.0,30.16,NW,315,18.7,18.8,48,0.00,,,0.00,WUHU216HW,2013-01-25 04:30:00,
2013-01-24 23:35:00,8.8,-6.6,30.15,NW,315,11.4,21.7,49,0.00,,,0.00,WUHU216HW,2013-01-25 04:35:00,
2013-01-24 23:40:00,8.9,-5.6,30.16,NW,315,13.1,21.7,51,0.00,,,0.00,WUHU216HW,2013-01-25 04:40:00,
2013-01-24 23:45:00,8.8,-6.6,30.17,WNW,293,8.5,18.8,49,0.00,,,0.00,WUHU216HW,2013-01-25 04:45:00,
2013-01-24 23:50:00,8.8,-6.6,30.17,NNW,338,11.4,18.8,49,0.00,,,0.00,WUHU216HW,2013-01-25 04:50:00,
2013-01-24 23:55:00,8.8,-6.6,30.17,WNW,293,11.4,14.8,49,0.00,,,0.00,WUHU216HW,2013-01-25 04:55:00,